createdAt,value
2024-02-08T06:46:49.460Z,99122.06
2024-02-08T07:25:12.891Z,99139.72
2024-02-08T07:49:52.751Z,99133.56
2024-02-08T08:40:22.386Z,99104.75
2024-02-08T08:42:51.728Z,99102.75
2024-02-08T08:45:20.930Z,99111.31
2024-02-08T08:47:55.647Z,99096.09
2024-02-08T08:50:32.615Z,99099.66
2024-02-08T08:53:10.103Z,99101.63
2024-02-08T08:55:51.514Z,99087.66
2024-02-08T08:58:24.415Z,99096.59
2024-02-08T09:01:00.797Z,99096.91
2024-02-08T09:03:30.270Z,99091.91
2024-02-08T09:05:59.266Z,99089.91
2024-02-08T09:08:45.960Z,99090.38
2024-02-08T09:11:16.057Z,99085.91
2024-02-08T09:13:46.445Z,99083.91
2024-02-08T09:16:38.705Z,99092.31
2024-02-08T09:19:09.016Z,99088.84
2024-02-08T09:21:40.544Z,99087.19
2024-02-08T09:24:19.354Z,99079.91
2024-02-08T09:26:50.766Z,99083.34
2024-02-08T09:32:23.741Z,99080.69
2024-02-08T09:34:54.842Z,99087.13
2024-02-08T09:37:23.634Z,99086.94
2024-02-08T10:25:38.425Z,99048.44
2024-02-08T10:28:09.048Z,99041.28
2024-02-08T10:30:45.684Z,99039.16
2024-02-08T10:33:17.974Z,99041.16
2024-02-08T10:35:48.923Z,99029.34
2024-02-08T10:38:26.690Z,99021.63
2024-02-08T10:40:58.275Z,99021.00
2024-02-08T10:43:38.708Z,99015.97
2024-02-08T10:46:18.155Z,98999.63
2024-02-08T10:48:50.978Z,98995.59
2024-02-08T10:51:27.786Z,98994.19
2024-02-08T10:54:06.995Z,98988.91
2024-02-08T10:56:46.756Z,98991.19
2024-02-08T10:59:40.638Z,98983.84
2024-02-08T11:02:27.129Z,98980.25
2024-02-08T11:05:14.423Z,98973.66
2024-02-08T11:07:47.471Z,98965.13
2024-02-08T11:10:22.787Z,98964.31
2024-02-08T11:12:54.743Z,98959.44
2024-02-08T11:15:32.995Z,98946.56
2024-02-08T11:18:05.511Z,98944.53
2024-02-08T11:20:43.987Z,98937.16
2024-02-08T11:23:19.961Z,98924.19
2024-02-08T11:25:48.334Z,98914.56
2024-02-08T11:28:25.830Z,98923.19
2024-02-08T11:30:57.358Z,98920.72
2024-02-08T11:33:33.344Z,98921.06
2024-02-08T11:36:14.104Z,98914.56
2024-02-08T11:39:01.027Z,98911.53
2024-02-08T11:41:33.849Z,98906.47
2024-02-08T11:44:05.554Z,98901.53
2024-02-08T11:47:11.210Z,98909.75
2024-02-08T11:49:54.568Z,98905.63
2024-02-08T11:52:25.620Z,98911.81
2024-02-08T11:55:07.879Z,98898.72
2024-02-08T11:57:42.392Z,98893.03
2024-02-08T12:00:28.922Z,98894.06
2024-02-08T12:03:39.798Z,98888.38
2024-02-08T12:09:35.140Z,98885.34
2024-02-08T12:12:33.593Z,98878.41
2024-02-08T12:15:16.238Z,98876.22
2024-02-08T12:21:12.974Z,98868.72
2024-02-08T12:24:32.918Z,98865.66
2024-02-08T12:27:27.244Z,98868.94
2024-02-08T12:29:58.754Z,98864.63
2024-02-08T12:32:59.797Z,98859.31
2024-02-08T12:35:35.872Z,98855.25
2024-02-08T12:38:20.162Z,98847.66
2024-02-08T12:41:01.046Z,98865.88
2024-02-08T12:43:57.272Z,98860.97
2024-02-08T12:46:46.014Z,98866.72
2024-02-08T12:49:51.675Z,98865.50
2024-02-08T12:53:05.947Z,98865.09
2024-02-08T12:56:14.961Z,98862.66
2024-02-08T12:59:37.067Z,98862.03
2024-02-08T13:08:51.501Z,98851.47
2024-02-08T13:21:51.232Z,98837.38
2024-02-08T13:24:43.166Z,98830.44
2024-02-08T13:41:19.859Z,98811.03
2024-02-08T13:44:27.138Z,98796.13
2024-02-08T14:00:02.322Z,98790.56
2024-02-08T14:09:20.635Z,98783.19
2024-02-08T14:12:07.677Z,98782.38
2024-02-08T14:15:10.710Z,98790.13
2024-02-08T14:18:28.722Z,98792.41
2024-02-08T14:21:05.192Z,98783.38
2024-02-08T14:23:51.850Z,98771.91
2024-02-08T14:26:41.058Z,98775.81
2024-02-08T14:38:43.701Z,98758.00
2024-02-08T14:41:27.502Z,98759.41
2024-02-08T14:43:56.624Z,98758.00
2024-02-08T14:46:27.838Z,98745.72
2024-02-08T14:48:56.205Z,98740.22
2024-02-08T14:51:39.133Z,98748.19
2024-02-08T14:54:20.361Z,98739.19
2024-02-08T14:57:06.653Z,98739.00
2024-02-08T14:59:51.980Z,98730.81
2024-02-08T15:02:25.140Z,98733.47
2024-02-08T15:05:02.691Z,98730.81
2024-02-08T15:07:50.177Z,98724.88
2024-02-08T15:10:45.045Z,98724.47
2024-02-08T15:13:20.889Z,98724.22
2024-02-08T15:15:54.666Z,98722.38
2024-02-08T15:18:32.451Z,98714.63
2024-02-08T15:21:10.613Z,98715.84
2024-02-08T15:23:50.477Z,98711.75
2024-02-08T15:26:27.479Z,98701.94
2024-02-08T15:29:00.885Z,98702.75
2024-02-08T15:31:48.542Z,98697.00
2024-02-08T15:34:29.291Z,98690.50
2024-02-08T15:37:15.558Z,98693.97
2024-02-08T15:40:11.513Z,98685.16
2024-02-08T15:42:52.755Z,98688.03
2024-02-08T15:45:22.727Z,98682.06
2024-02-08T15:48:12.235Z,98684.75
2024-02-08T15:50:47.452Z,98684.75
2024-02-08T15:53:24.656Z,98685.34
2024-02-08T15:55:57.378Z,98676.97
2024-02-08T15:58:30.762Z,98674.28
2024-02-08T16:01:28.777Z,98666.53
2024-02-08T16:04:01.738Z,98667.94
2024-02-08T16:06:44.712Z,98660.59
2024-02-08T16:09:27.082Z,98663.44
2024-02-08T16:12:01.733Z,98660.59
2024-02-08T16:20:59.214Z,98663.06
2024-02-08T16:26:40.112Z,98661.22
2024-02-08T16:29:10.264Z,98650.78
2024-02-08T16:34:36.825Z,98657.75
2024-02-08T16:40:31.245Z,98653.25
2024-02-08T16:43:12.249Z,98656.13
2024-02-08T16:45:49.940Z,98658.59
2024-02-08T16:48:36.984Z,98651.81
2024-02-08T16:51:39.506Z,98652.44
2024-02-08T17:07:48.827Z,98648.31
2024-02-08T17:10:35.885Z,98656.09
2024-02-08T17:13:46.537Z,98656.09
2024-02-08T17:16:43.797Z,98650.56
2024-02-08T17:22:58.909Z,98650.75
2024-02-08T17:58:59.842Z,98628.44
2024-02-08T18:08:03.474Z,98627.63
2024-02-08T18:10:54.026Z,98624.56
2024-02-08T18:23:31.174Z,98624.13
2024-02-08T18:26:05.148Z,98614.09
2024-02-08T18:31:36.089Z,98618.41
2024-02-08T18:34:25.802Z,98606.31
2024-02-08T18:42:59.941Z,98605.72
2024-02-08T18:51:40.940Z,98598.78
2024-02-08T18:54:12.928Z,98607.34
2024-02-08T18:56:43.056Z,98600.81
2024-02-08T18:59:15.760Z,98592.63
2024-02-08T19:01:54.092Z,98594.63
2024-02-08T19:04:26.819Z,98593.41
2024-02-08T19:06:56.441Z,98586.84
2024-02-08T19:09:30.917Z,98591.78
2024-02-08T19:12:13.970Z,98593.03
2024-02-08T19:14:51.239Z,98602.03
2024-02-08T19:17:26.978Z,98596.31
